sensor_id;sensor_type;location;lat;lon;timestamp;temperature;humidity
57564;DHT22;43400;45.926;6.724;2022-08-30T17:30:10;23.00;76.10
57564;DHT22;43400;45.926;6.724;2022-08-30T17:32:42;23.00;77.90
57564;DHT22;43400;45.926;6.724;2022-08-30T17:35:14;22.90;79.10
57564;DHT22;43400;45.926;6.724;2022-08-30T17:37:46;22.80;80.20
57564;DHT22;43400;45.926;6.724;2022-08-30T17:40:18;22.70;80.60
57564;DHT22;43400;45.926;6.724;2022-08-30T17:42:50;22.60;81.00
57564;DHT22;43400;45.926;6.724;2022-08-30T17:45:22;22.50;82.10
57564;DHT22;43400;45.926;6.724;2022-08-30T17:47:53;22.50;81.50
57564;DHT22;43400;45.926;6.724;2022-08-30T17:50:25;22.50;82.20
57564;DHT22;43400;45.926;6.724;2022-08-30T17:52:56;22.50;82.70
57564;DHT22;43400;45.926;6.724;2022-08-30T17:55:28;22.30;81.90
57564;DHT22;43400;45.926;6.724;2022-08-30T17:57:59;22.40;82.80
57564;DHT22;43400;45.926;6.724;2022-08-30T18:00:31;22.30;82.70
57564;DHT22;43400;45.926;6.724;2022-08-30T18:03:02;22.30;83.00
57564;DHT22;43400;45.926;6.724;2022-08-30T18:05:34;22.30;82.50
57564;DHT22;43400;45.926;6.724;2022-08-30T18:08:06;22.20;83.20
57564;DHT22;43400;45.926;6.724;2022-08-30T18:10:37;22.20;83.00
57564;DHT22;43400;45.926;6.724;2022-08-30T18:13:09;22.20;83.70
57564;DHT22;43400;45.926;6.724;2022-08-30T18:15:40;22.10;83.60
57564;DHT22;43400;45.926;6.724;2022-08-30T18:18:12;22.10;83.00
57564;DHT22;43400;45.926;6.724;2022-08-30T18:20:44;22.20;83.40
57564;DHT22;43400;45.926;6.724;2022-08-30T18:23:15;22.10;84.00
57564;DHT22;43400;45.926;6.724;2022-08-30T18:25:58;22.10;84.40
57564;DHT22;43400;45.926;6.724;2022-08-30T18:28:30;22.10;84.60
57564;DHT22;43400;45.926;6.724;2022-08-30T18:31:02;22.10;84.60
57564;DHT22;43400;45.926;6.724;2022-08-30T18:33:34;22.10;84.80
57564;DHT22;43400;45.926;6.724;2022-08-30T18:36:05;21.90;86.80
57564;DHT22;43400;45.926;6.724;2022-08-30T18:38:38;21.90;88.90
57564;DHT22;43400;45.926;6.724;2022-08-30T18:41:11;21.80;88.60
57564;DHT22;43400;45.926;6.724;2022-08-30T18:43:43;21.60;90.10
57564;DHT22;43400;45.926;6.724;2022-08-30T18:46:16;21.50;91.20
57564;DHT22;43400;45.926;6.724;2022-08-30T18:48:48;21.50;92.30
57564;DHT22;43400;45.926;6.724;2022-08-30T18:51:20;21.30;93.00
57564;DHT22;43400;45.926;6.724;2022-08-30T18:53:52;21.30;96.20
57564;DHT22;43400;45.926;6.724;2022-08-30T18:56:24;21.20;99.90
57564;DHT22;43400;45.926;6.724;2022-08-30T18:58:56;21.10;99.90
57564;DHT22;43400;45.926;6.724;2022-08-30T19:01:27;20.90;98.00
57564;DHT22;43400;45.926;6.724;2022-08-30T19:03:59;20.70;98.70
57564;DHT22;43400;45.926;6.724;2022-08-30T19:06:30;20.20;99.90
57564;DHT22;43400;45.926;6.724;2022-08-30T19:09:03;19.60;97.30
57564;DHT22;43400;45.926;6.724;2022-08-30T19:11:35;19.30;99.90
57564;DHT22;43400;45.926;6.724;2022-08-30T19:14:07;19.10;99.90
57564;DHT22;43400;45.926;6.724;2022-08-30T19:16:38;19.00;99.90
57564;DHT22;43400;45.926;6.724;2022-08-30T19:19:10;18.90;99.90
57564;DHT22;43400;45.926;6.724;2022-08-30T19:21:41;18.80;99.90
57564;DHT22;43400;45.926;6.724;2022-08-30T19:24:13;18.70;99.90
57564;DHT22;43400;45.926;6.724;2022-08-30T19:26:44;18.60;99.90
57564;DHT22;43400;45.926;6.724;2022-08-30T19:29:16;18.50;99.90
57564;DHT22;43400;45.926;6.724;2022-08-30T19:31:47;18.30;99.90
57564;DHT22;43400;45.926;6.724;2022-08-30T19:34:19;18.20;99.90
57564;DHT22;43400;45.926;6.724;2022-08-30T19:36:51;18.10;99.90
57564;DHT22;43400;45.926;6.724;2022-08-30T19:39:22;18.00;99.90
57564;DHT22;43400;45.926;6.724;2022-08-30T19:41:54;18.00;99.90
57564;DHT22;43400;45.926;6.724;2022-08-30T19:44:26;18.00;99.90
57564;DHT22;43400;45.926;6.724;2022-08-30T19:47:01;17.80;99.90
57564;DHT22;43400;45.926;6.724;2022-08-30T19:49:36;17.70;99.90
57564;DHT22;43400;45.926;6.724;2022-08-30T19:52:10;17.70;99.90
57564;DHT22;43400;45.926;6.724;2022-08-30T19:54:42;17.60;99.90
57564;DHT22;43400;45.926;6.724;2022-08-30T19:57:13;17.60;99.90
57564;DHT22;43400;45.926;6.724;2022-08-30T19:59:45;17.50;99.90
57564;DHT22;43400;45.926;6.724;2022-08-30T20:02:16;17.50;99.90
57564;DHT22;43400;45.926;6.724;2022-08-30T20:04:48;17.50;99.90
57564;DHT22;43400;45.926;6.724;2022-08-30T20:07:20;17.40;99.90
57564;DHT22;43400;45.926;6.724;2022-08-30T20:09:52;17.50;99.90
57564;DHT22;43400;45.926;6.724;2022-08-30T20:12:23;17.50;99.90
57564;DHT22;43400;45.926;6.724;2022-08-30T20:14:55;17.50;99.90
57564;DHT22;43400;45.926;6.724;2022-08-30T20:17:27;17.50;99.90
57564;DHT22;43400;45.926;6.724;2022-08-30T20:19:58;17.50;99.90
57564;DHT22;43400;45.926;6.724;2022-08-30T20:22:30;17.40;99.90
57564;DHT22;43400;45.926;6.724;2022-08-30T20:25:02;17.50;99.90
57564;DHT22;43400;45.926;6.724;2022-08-30T20:27:34;17.50;99.90
57564;DHT22;43400;45.926;6.724;2022-08-30T20:30:08;17.40;99.90
57564;DHT22;43400;45.926;6.724;2022-08-30T20:32:41;17.40;99.90
57564;DHT22;43400;45.926;6.724;2022-08-30T20:35:14;17.30;99.90
57564;DHT22;43400;45.926;6.724;2022-08-30T20:37:46;17.30;99.90
57564;DHT22;43400;45.926;6.724;2022-08-30T20:40:18;17.30;99.90
57564;DHT22;43400;45.926;6.724;2022-08-30T20:42:50;17.40;99.90
57564;DHT22;43400;45.926;6.724;2022-08-30T20:45:21;17.40;99.90
57564;DHT22;43400;45.926;6.724;2022-08-30T20:47:53;17.30;99.90
57564;DHT22;43400;45.926;6.724;2022-08-30T20:50:25;17.30;99.90
57564;DHT22;43400;45.926;6.724;2022-08-30T20:52:57;17.40;99.90
57564;DHT22;43400;45.926;6.724;2022-08-30T20:55:28;17.40;99.90
57564;DHT22;43400;45.926;6.724;2022-08-30T20:58:00;17.50;99.90
57564;DHT22;43400;45.926;6.724;2022-08-30T21:00:31;17.40;99.90
57564;DHT22;43400;45.926;6.724;2022-08-30T21:03:04;17.40;99.90
57564;DHT22;43400;45.926;6.724;2022-08-30T21:05:35;17.40;99.90
57564;DHT22;43400;45.926;6.724;2022-08-30T21:08:06;17.40;99.90
57564;DHT22;43400;45.926;6.724;2022-08-30T21:10:38;17.40;99.90
57564;DHT22;43400;45.926;6.724;2022-08-30T21:13:10;17.40;99.90
57564;DHT22;43400;45.926;6.724;2022-08-30T21:15:41;17.30;99.90
57564;DHT22;43400;45.926;6.724;2022-08-30T21:18:13;17.20;99.90
57564;DHT22;43400;45.926;6.724;2022-08-30T21:20:45;17.20;99.90
57564;DHT22;43400;45.926;6.724;2022-08-30T21:23:17;17.20;99.90
57564;DHT22;43400;45.926;6.724;2022-08-30T21:25:48;17.30;99.90
57564;DHT22;43400;45.926;6.724;2022-08-30T21:28:20;17.30;99.90
57564;DHT22;43400;45.926;6.724;2022-08-30T21:31:05;17.30;99.90
57564;DHT22;43400;45.926;6.724;2022-08-30T21:33:38;17.20;99.90
57564;DHT22;43400;45.926;6.724;2022-08-30T21:36:09;17.20;99.90
57564;DHT22;43400;45.926;6.724;2022-08-30T21:38:41;17.20;99.90
57564;DHT22;43400;45.926;6.724;2022-08-30T21:41:13;17.00;99.90
57564;DHT22;43400;45.926;6.724;2022-08-30T21:43:44;16.90;99.90
57564;DHT22;43400;45.926;6.724;2022-08-30T21:46:16;16.90;99.90
57564;DHT22;43400;45.926;6.724;2022-08-30T21:48:48;16.90;99.90
57564;DHT22;43400;45.926;6.724;2022-08-30T21:51:20;16.80;99.90
57564;DHT22;43400;45.926;6.724;2022-08-30T21:53:52;16.80;99.90
57564;DHT22;43400;45.926;6.724;2022-08-30T21:56:24;16.90;99.90
57564;DHT22;43400;45.926;6.724;2022-08-30T21:58:55;16.80;99.90
57564;DHT22;43400;45.926;6.724;2022-08-30T22:01:28;16.80;99.90
57564;DHT22;43400;45.926;6.724;2022-08-30T22:04:01;16.80;99.90
57564;DHT22;43400;45.926;6.724;2022-08-30T22:06:35;16.70;99.90
57564;DHT22;43400;45.926;6.724;2022-08-30T22:09:10;16.70;99.90
57564;DHT22;43400;45.926;6.724;2022-08-30T22:11:43;16.60;99.90
57564;DHT22;43400;45.926;6.724;2022-08-30T22:14:15;16.60;99.90
57564;DHT22;43400;45.926;6.724;2022-08-30T22:16:47;16.70;99.90
57564;DHT22;43400;45.926;6.724;2022-08-30T22:19:19;16.60;99.90
57564;DHT22;43400;45.926;6.724;2022-08-30T22:21:51;16.60;99.90
57564;DHT22;43400;45.926;6.724;2022-08-30T22:24:23;16.60;99.90
57564;DHT22;43400;45.926;6.724;2022-08-30T22:26:55;16.50;99.90
57564;DHT22;43400;45.926;6.724;2022-08-30T22:29:26;16.50;99.90
57564;DHT22;43400;45.926;6.724;2022-08-30T22:31:58;16.40;99.90
57564;DHT22;43400;45.926;6.724;2022-08-30T22:34:30;16.30;99.90
57564;DHT22;43400;45.926;6.724;2022-08-30T22:37:01;16.30;99.90
57564;DHT22;43400;45.926;6.724;2022-08-30T22:39:33;16.30;99.90
57564;DHT22;43400;45.926;6.724;2022-08-30T22:42:05;16.40;99.90
57564;DHT22;43400;45.926;6.724;2022-08-30T22:44:38;16.50;99.90
57564;DHT22;43400;45.926;6.724;2022-08-30T22:47:10;16.50;99.90
57564;DHT22;43400;45.926;6.724;2022-08-30T22:49:42;16.50;99.90
57564;DHT22;43400;45.926;6.724;2022-08-30T22:52:13;16.40;99.90
57564;DHT22;43400;45.926;6.724;2022-08-30T22:54:45;16.40;99.90
57564;DHT22;43400;45.926;6.724;2022-08-30T22:57:17;16.40;99.90
57564;DHT22;43400;45.926;6.724;2022-08-30T22:59:48;16.30;99.90
57564;DHT22;43400;45.926;6.724;2022-08-30T23:02:20;16.30;99.90
57564;DHT22;43400;45.926;6.724;2022-08-30T23:04:51;16.30;99.90
57564;DHT22;43400;45.926;6.724;2022-08-30T23:07:23;16.30;99.90
57564;DHT22;43400;45.926;6.724;2022-08-30T23:09:55;16.30;99.90
57564;DHT22;43400;45.926;6.724;2022-08-30T23:12:27;16.20;99.90
57564;DHT22;43400;45.926;6.724;2022-08-30T23:14:58;16.20;99.90
57564;DHT22;43400;45.926;6.724;2022-08-30T23:17:30;16.10;99.90
57564;DHT22;43400;45.926;6.724;2022-08-30T23:20:03;16.10;99.90
57564;DHT22;43400;45.926;6.724;2022-08-30T23:22:35;16.10;99.90
57564;DHT22;43400;45.926;6.724;2022-08-30T23:25:08;16.10;99.90
57564;DHT22;43400;45.926;6.724;2022-08-30T23:27:40;16.00;99.90
57564;DHT22;43400;45.926;6.724;2022-08-30T23:30:11;15.90;99.90
57564;DHT22;43400;45.926;6.724;2022-08-30T23:32:43;15.90;99.90
57564;DHT22;43400;45.926;6.724;2022-08-30T23:35:15;15.90;99.90
57564;DHT22;43400;45.926;6.724;2022-08-30T23:37:46;15.90;99.90
57564;DHT22;43400;45.926;6.724;2022-08-30T23:40:18;16.00;99.90
57564;DHT22;43400;45.926;6.724;2022-08-30T23:42:50;15.90;99.90
57564;DHT22;43400;45.926;6.724;2022-08-30T23:45:22;15.90;99.90
57564;DHT22;43400;45.926;6.724;2022-08-30T23:47:53;15.90;99.90
57564;DHT22;43400;45.926;6.724;2022-08-30T23:50:25;15.90;99.90
57564;DHT22;43400;45.926;6.724;2022-08-30T23:52:56;15.90;99.90
57564;DHT22;43400;45.926;6.724;2022-08-30T23:55:28;15.90;99.90
57564;DHT22;43400;45.926;6.724;2022-08-30T23:57:59;16.00;99.90
